Time;durP1;ratioP1;P1;durP2;ratioP2;P2;SDS_P1;SDS_P2;PMS_P1;PMS_P2;Temp;Humidity;BMP_temperature;BMP_pressure;BME280_temperature;BME280_humidity;BME280_pressure;Samples;Min_cycle;Max_cycle;Signal;HPM_P1;HPM_P2
2023/05/10 00:02:13;;;;;;;5.23;2.37;;;18.40;79.50;;;;;;5071422;28;20563;-66
2023/05/10 00:07:34;;;;;;;4.20;2.10;;;18.30;79.40;;;;;;5087491;28;20815;-66
2023/05/10 00:10:21;;;;;;;5.00;2.00;;;18.30;79.60;;;;;;5072814;28;20472;-66
2023/05/10 00:13:00;;;;;;;4.70;2.20;;;18.30;79.60;;;;;;5071208;28;20472;-66
2023/05/10 00:15:35;;;;;;;4.53;2.20;;;18.30;79.50;;;;;;5069829;28;20473;-66
2023/05/10 00:18:08;;;;;;;4.50;2.10;;;18.30;79.50;;;;;;5071382;28;20484;-66
2023/05/10 00:20:41;;;;;;;4.47;2.37;;;18.30;79.50;;;;;;5072592;28;20876;-66
2023/05/10 00:23:12;;;;;;;5.70;2.53;;;18.30;79.50;;;;;;5071230;28;20457;-67
2023/05/10 00:25:47;;;;;;;4.50;2.40;;;18.30;79.60;;;;;;5070805;28;20555;-66
2023/05/10 00:28:19;;;;;;;4.47;2.53;;;18.30;79.60;;;;;;5070965;28;20453;-67
2023/05/10 00:30:50;;;;;;;4.70;1.93;;;18.30;79.60;;;;;;5069709;28;20529;-67
2023/05/10 00:33:30;;;;;;;7.00;2.40;;;18.30;79.60;;;;;;5067623;28;20454;-66
2023/05/10 00:36:03;;;;;;;5.63;2.20;;;18.20;79.60;;;;;;5069537;28;20911;-66
2023/05/10 00:38:32;;;;;;;4.70;2.10;;;18.20;79.60;;;;;;5067076;28;20481;-67
2023/05/10 00:41:07;;;;;;;4.93;2.20;;;18.20;79.60;;;;;;5068593;28;20458;-67
2023/05/10 00:43:40;;;;;;;4.63;2.23;;;18.20;79.70;;;;;;5065241;28;20498;-66
2023/05/10 00:46:17;;;;;;;4.10;2.27;;;18.20;79.60;;;;;;5068560;28;21072;-66
2023/05/10 00:48:52;;;;;;;4.33;2.03;;;18.20;79.70;;;;;;5070185;28;20518;-66
2023/05/10 00:51:29;;;;;;;4.47;2.20;;;18.20;79.70;;;;;;5067036;28;20760;-66
2023/05/10 00:54:00;;;;;;;4.30;1.93;;;18.10;79.70;;;;;;5070362;28;20469;-67
2023/05/10 00:56:48;;;;;;;4.97;2.40;;;18.10;79.80;;;;;;5072175;28;20945;-67
2023/05/10 00:59:28;;;;;;;4.73;2.30;;;18.10;79.80;;;;;;5064900;28;20525;-67
2023/05/10 01:01:59;;;;;;;4.53;2.13;;;18.00;79.80;;;;;;5069913;28;20505;-67
2023/05/10 01:04:38;;;;;;;4.67;1.77;;;18.00;79.90;;;;;;5070953;28;20460;-66
2023/05/10 01:07:12;;;;;;;4.20;1.80;;;18.00;79.90;;;;;;5066981;28;20473;-67
2023/05/10 01:09:45;;;;;;;3.77;1.60;;;18.00;80.00;;;;;;5066694;28;20869;-67
2023/05/10 01:12:25;;;;;;;5.10;2.10;;;17.90;80.00;;;;;;5069847;28;20549;-66
2023/05/10 01:15:04;;;;;;;5.50;1.93;;;17.90;80.10;;;;;;5068902;28;20480;-67
2023/05/10 01:17:39;;;;;;;4.83;1.50;;;17.90;80.10;;;;;;5069636;28;20993;-66
2023/05/10 01:20:13;;;;;;;3.70;1.60;;;17.90;80.10;;;;;;5066410;28;20445;-66
2023/05/10 01:23:06;;;;;;;4.67;1.60;;;17.90;80.10;;;;;;5069459;28;20514;-66
2023/05/10 01:26:12;;;;;;;3.50;1.50;;;17.90;80.10;;;;;;5049674;28;20809;-66
2023/05/10 01:29:25;;;;;;;3.63;1.03;;;17.80;80.00;;;;;;5055162;28;20501;-67
2023/05/10 01:32:27;;;;;;;4.03;1.00;;;17.80;80.00;;;;;;5065178;28;20475;-66
2023/05/10 01:35:12;;;;;;;5.10;1.07;;;17.80;79.90;;;;;;5063110;28;20492;-66
2023/05/10 01:37:52;;;;;;;4.10;0.80;;;17.80;79.80;;;;;;5072489;28;20518;-66
2023/05/10 01:40:41;;;;;;;3.10;1.00;;;17.80;79.90;;;;;;5073437;28;20953;-67
2023/05/10 01:43:18;;;;;;;3.77;0.87;;;17.80;79.70;;;;;;5068460;28;20499;-66
2023/05/10 01:46:10;;;;;;;4.13;1.47;;;17.70;79.70;;;;;;5071797;28;20510;-67
2023/05/10 01:48:59;;;;;;;3.20;1.10;;;17.70;79.70;;;;;;5087785;28;20476;-66
2023/05/10 01:51:42;;;;;;;4.27;1.30;;;17.70;79.70;;;;;;5070662;28;20477;-66
2023/05/10 01:54:17;;;;;;;3.73;1.27;;;17.60;79.70;;;;;;5069480;28;21151;-67
2023/05/10 01:57:03;;;;;;;3.60;1.43;;;17.60;79.70;;;;;;5069570;28;20990;-66
2023/05/10 01:59:41;;;;;;;3.30;1.20;;;17.60;79.70;;;;;;5069368;28;20463;-67
2023/05/10 02:02:23;;;;;;;4.27;1.10;;;17.60;79.70;;;;;;5066041;28;20481;-66
2023/05/10 02:05:07;;;;;;;4.63;1.07;;;17.50;79.70;;;;;;5069846;28;20472;-66
2023/05/10 02:07:43;;;;;;;5.77;0.90;;;17.40;79.60;;;;;;5071151;28;20695;-67
2023/05/10 02:10:23;;;;;;;3.80;1.20;;;17.40;79.80;;;;;;5066050;28;20464;-66
2023/05/10 02:12:54;;;;;;;5.10;1.30;;;17.30;79.80;;;;;;5066782;28;20467;-66
2023/05/10 02:15:26;;;;;;;3.20;1.07;;;17.40;79.70;;;;;;5046196;28;20465;-67
2023/05/10 02:18:01;;;;;;;4.07;1.10;;;17.40;79.60;;;;;;5066760;28;20456;-66
2023/05/10 02:20:36;;;;;;;3.30;1.00;;;17.30;79.50;;;;;;5067972;28;20893;-66
2023/05/10 02:23:12;;;;;;;3.10;1.00;;;17.30;79.50;;;;;;5065176;28;20508;-66
2023/05/10 02:25:47;;;;;;;3.00;0.90;;;17.20;79.40;;;;;;5067611;28;20493;-66
2023/05/10 02:28:23;;;;;;;4.80;1.00;;;17.20;79.50;;;;;;5065810;28;20667;-66
2023/05/10 02:31:02;;;;;;;4.43;1.00;;;17.20;79.40;;;;;;5061042;28;20481;-67
2023/05/10 02:33:38;;;;;;;3.20;1.00;;;17.10;79.30;;;;;;5065703;28;20915;-66
2023/05/10 02:36:11;;;;;;;3.10;1.10;;;17.10;79.40;;;;;;5059444;28;21267;-66
2023/05/10 02:38:47;;;;;;;2.97;0.90;;;17.10;79.30;;;;;;5067218;28;20476;-67
2023/05/10 02:41:21;;;;;;;4.57;1.10;;;17.10;79.30;;;;;;5067491;28;20560;-66
2023/05/10 02:44:02;;;;;;;4.20;1.33;;;17.10;79.30;;;;;;5067537;28;20453;-66
2023/05/10 02:46:35;;;;;;;4.67;1.20;;;17.10;79.30;;;;;;5067760;28;20476;-67
2023/05/10 02:49:13;;;;;;;3.30;1.10;;;17.10;79.30;;;;;;5069181;28;20556;-66
2023/05/10 02:51:50;;;;;;;3.37;1.10;;;17.00;79.30;;;;;;5068013;28;20465;-66
2023/05/10 02:54:31;;;;;;;3.50;0.97;;;17.10;79.30;;;;;;5065708;28;20574;-66
2023/05/10 02:57:05;;;;;;;4.83;1.37;;;17.00;79.20;;;;;;5065580;28;20465;-66
2023/05/10 02:59:38;;;;;;;3.70;1.23;;;17.00;79.30;;;;;;5064139;28;20492;-67
2023/05/10 03:02:10;;;;;;;3.23;1.00;;;17.00;79.30;;;;;;5064781;28;20485;-67
2023/05/10 03:04:41;;;;;;;5.57;1.07;;;17.00;79.30;;;;;;5047593;28;20496;-66
2023/05/10 03:07:24;;;;;;;4.27;1.20;;;17.00;79.30;;;;;;5067172;28;20544;-67
2023/05/10 03:09:54;;;;;;;2.93;0.90;;;17.00;79.30;;;;;;5065134;28;21075;-66
2023/05/10 03:12:48;;;;;;;3.10;0.97;;;16.90;79.30;;;;;;5065765;28;20463;-66
2023/05/10 03:15:37;;;;;;;3.93;1.07;;;16.90;79.30;;;;;;5065249;28;20499;-66
2023/05/10 03:18:11;;;;;;;5.10;1.40;;;17.00;79.30;;;;;;5068137;28;20919;-66
2023/05/10 03:20:48;;;;;;;3.50;1.40;;;16.90;79.20;;;;;;5066350;28;20976;-66
2023/05/10 03:23:30;;;;;;;3.33;1.07;;;16.90;79.30;;;;;;5061518;28;21063;-66
2023/05/10 03:26:02;;;;;;;3.17;0.87;;;16.90;79.30;;;;;;5059031;28;20525;-66
2023/05/10 03:28:35;;;;;;;3.40;1.20;;;16.90;79.30;;;;;;5063825;28;20558;-66
2023/05/10 03:31:10;;;;;;;3.17;0.93;;;16.90;79.30;;;;;;5066601;28;20507;-67
2023/05/10 03:33:53;;;;;;;3.37;1.30;;;16.80;79.20;;;;;;5070249;28;20457;-66
2023/05/10 03:36:27;;;;;;;2.97;0.90;;;16.80;79.30;;;;;;5066796;28;20483;-66
2023/05/10 03:39:07;;;;;;;4.33;1.20;;;16.80;79.30;;;;;;5085553;28;20987;-67
2023/05/10 03:41:43;;;;;;;3.30;1.20;;;16.80;79.30;;;;;;5070865;28;20470;-66
2023/05/10 03:44:16;;;;;;;4.00;1.60;;;16.80;79.30;;;;;;5065759;28;20532;-66
2023/05/10 03:46:47;;;;;;;3.43;1.47;;;16.70;79.30;;;;;;5062822;28;20454;-66
2023/05/10 03:49:19;;;;;;;4.30;1.40;;;16.70;79.30;;;;;;5068944;28;20522;-66
2023/05/10 03:51:56;;;;;;;4.63;1.40;;;16.80;79.30;;;;;;5061697;28;20836;-66
2023/05/10 03:54:41;;;;;;;4.10;1.60;;;16.80;79.30;;;;;;5075225;28;20464;-66
2023/05/10 03:57:16;;;;;;;6.73;1.30;;;16.80;79.30;;;;;;5065619;28;21139;-66
2023/05/10 03:59:45;;;;;;;4.50;1.27;;;16.70;79.30;;;;;;5067781;28;20849;-66
2023/05/10 04:02:16;;;;;;;5.10;1.73;;;16.70;79.30;;;;;;5059811;28;20488;-66
2023/05/10 04:04:50;;;;;;;3.40;1.20;;;16.70;79.30;;;;;;5082288;28;20555;-66
2023/05/10 04:07:30;;;;;;;3.53;1.27;;;16.70;79.40;;;;;;5063652;28;20929;-67
2023/05/10 04:10:14;;;;;;;4.40;1.10;;;16.70;79.40;;;;;;5069376;28;20472;-66
2023/05/10 04:12:47;;;;;;;3.00;1.00;;;16.70;79.30;;;;;;5066200;28;20636;-66
2023/05/10 04:15:19;;;;;;;4.07;1.40;;;16.80;79.30;;;;;;5067435;28;20473;-66
2023/05/10 04:17:57;;;;;;;3.30;1.30;;;16.70;79.20;;;;;;5068846;28;20533;-66
2023/05/10 04:20:36;;;;;;;3.60;1.50;;;16.70;79.40;;;;;;5067270;28;20467;-66
2023/05/10 04:23:16;;;;;;;5.30;1.37;;;16.70;79.40;;;;;;5064341;28;20800;-67
2023/05/10 04:25:52;;;;;;;3.43;1.40;;;16.70;79.40;;;;;;5066400;28;20473;-66
2023/05/10 04:28:24;;;;;;;3.40;1.40;;;16.70;79.20;;;;;;5065569;28;20780;-66
2023/05/10 04:30:56;;;;;;;6.37;1.47;;;16.70;79.30;;;;;;5065374;28;20504;-66
2023/05/10 04:33:28;;;;;;;6.60;1.23;;;16.70;79.30;;;;;;5061695;28;20476;-66
2023/05/10 04:36:07;;;;;;;10.20;1.20;;;16.70;79.40;;;;;;5065857;28;20996;-66
2023/05/10 04:38:37;;;;;;;4.00;1.27;;;16.70;79.40;;;;;;5066340;28;21009;-66
2023/05/10 04:41:17;;;;;;;3.50;1.30;;;16.70;79.40;;;;;;5069305;28;20484;-66
2023/05/10 04:43:56;;;;;;;4.43;1.50;;;16.70;79.30;;;;;;5066105;28;20468;-66
2023/05/10 04:46:35;;;;;;;4.17;1.30;;;16.70;79.40;;;;;;5067569;28;21168;-66
2023/05/10 04:49:09;;;;;;;3.40;1.33;;;16.70;79.40;;;;;;5068351;28;20779;-66
2023/05/10 04:51:48;;;;;;;3.93;1.37;;;16.70;79.50;;;;;;5066487;28;20478;-66
2023/05/10 04:54:28;;;;;;;4.80;1.47;;;16.70;79.40;;;;;;5070543;28;20454;-66
2023/05/10 04:57:06;;;;;;;3.80;1.40;;;16.70;79.50;;;;;;5068841;28;20468;-66
2023/05/10 04:59:37;;;;;;;3.40;1.50;;;16.70;79.40;;;;;;5073966;28;20573;-66
2023/05/10 05:02:24;;;;;;;3.40;1.50;;;16.70;79.40;;;;;;5067218;28;21011;-66
2023/05/10 05:04:53;;;;;;;4.40;1.80;;;16.70;79.40;;;;;;5068363;28;20468;-66
2023/05/10 05:07:30;;;;;;;4.67;1.43;;;16.70;79.40;;;;;;5071873;28;21009;-65
2023/05/10 05:10:03;;;;;;;6.40;1.63;;;16.80;79.40;;;;;;5071112;28;20463;-66
2023/05/10 05:12:47;;;;;;;5.03;1.90;;;16.80;79.40;;;;;;5071617;28;20560;-66
2023/05/10 05:15:18;;;;;;;3.60;1.40;;;16.80;79.40;;;;;;5072971;28;20540;-66
2023/05/10 05:17:51;;;;;;;6.90;1.60;;;16.80;79.40;;;;;;5069051;28;20458;-66
2023/05/10 05:20:32;;;;;;;4.33;1.80;;;16.90;79.40;;;;;;5072004;28;20480;-66
2023/05/10 05:23:10;;;;;;;5.80;1.90;;;16.90;79.30;;;;;;5071297;28;20488;-66
2023/05/10 05:28:37;;;;;;;4.00;1.50;;;16.90;79.30;;;;;;5071818;28;20474;-66
2023/05/10 05:31:09;;;;;;;3.57;1.67;;;16.90;79.40;;;;;;5067190;28;20485;-66
2023/05/10 05:33:43;;;;;;;5.77;1.90;;;16.90;79.30;;;;;;5067633;28;20821;-66
2023/05/10 05:36:16;;;;;;;3.70;1.60;;;16.90;79.30;;;;;;5069825;28;20477;-66
2023/05/10 05:38:49;;;;;;;4.20;1.67;;;16.90;79.30;;;;;;5068035;28;20461;-66
2023/05/10 05:41:25;;;;;;;5.27;2.03;;;16.90;79.30;;;;;;5070951;28;21324;-66
2023/05/10 05:43:59;;;;;;;4.43;1.60;;;16.90;79.30;;;;;;5066407;28;20453;-66
2023/05/10 05:46:38;;;;;;;4.43;1.60;;;16.90;79.40;;;;;;5067692;28;20557;-66
2023/05/10 05:49:11;;;;;;;5.23;2.13;;;16.90;79.30;;;;;;5066215;28;20464;-66
2023/05/10 05:51:49;;;;;;;4.73;1.80;;;16.90;79.30;;;;;;5070868;28;20467;-66
2023/05/10 05:54:26;;;;;;;7.70;2.17;;;16.90;79.40;;;;;;5068408;28;20452;-66
2023/05/10 05:57:01;;;;;;;3.77;1.77;;;16.90;79.40;;;;;;5067891;28;20513;-66
2023/05/10 05:59:47;;;;;;;4.77;1.80;;;16.90;79.30;;;;;;5073226;28;21230;-66
2023/05/10 06:02:22;;;;;;;4.10;1.83;;;16.90;79.30;;;;;;5067440;28;21274;-66
2023/05/10 06:05:00;;;;;;;3.70;1.73;;;16.90;79.40;;;;;;5066817;28;20941;-66
2023/05/10 06:07:41;;;;;;;5.10;2.20;;;16.90;79.60;;;;;;5068199;28;20449;-66
2023/05/10 06:10:15;;;;;;;4.37;2.20;;;17.00;79.60;;;;;;5068835;28;20454;-66
2023/05/10 06:12:45;;;;;;;4.97;2.10;;;17.10;79.60;;;;;;5065381;28;20887;-66
2023/05/10 06:15:33;;;;;;;5.93;2.17;;;17.10;79.60;;;;;;5067540;28;20941;-65
2023/05/10 06:18:03;;;;;;;4.43;2.17;;;17.10;79.50;;;;;;5067447;28;20518;-67
2023/05/10 06:20:44;;;;;;;4.17;2.33;;;17.20;79.50;;;;;;5068539;28;20481;-66
2023/05/10 06:23:25;;;;;;;4.40;2.20;;;17.20;79.40;;;;;;5065124;28;20452;-66
2023/05/10 06:25:57;;;;;;;4.77;2.37;;;17.20;79.30;;;;;;5068432;28;20461;-66
2023/05/10 06:28:38;;;;;;;4.60;2.20;;;17.20;79.40;;;;;;5067535;28;20561;-66
2023/05/10 06:31:17;;;;;;;4.90;2.57;;;17.20;79.40;;;;;;5066122;28;21036;-66
2023/05/10 06:33:52;;;;;;;4.30;1.90;;;17.20;79.30;;;;;;5070981;28;20453;-66
2023/05/10 06:36:27;;;;;;;5.93;2.00;;;17.10;79.40;;;;;;5068122;28;20467;-66
2023/05/10 06:39:07;;;;;;;5.60;2.20;;;17.20;79.40;;;;;;5072293;28;20492;-66
2023/05/10 06:41:40;;;;;;;6.60;2.20;;;17.20;79.40;;;;;;5065273;28;20493;-66
2023/05/10 06:44:16;;;;;;;5.77;2.00;;;17.20;79.50;;;;;;5066480;28;20939;-66
2023/05/10 06:46:58;;;;;;;6.13;2.50;;;17.20;79.60;;;;;;5071310;28;20578;-66
2023/05/10 06:49:29;;;;;;;6.40;2.83;;;17.30;79.60;;;;;;5068569;28;20457;-66
2023/05/10 06:52:06;;;;;;;5.27;2.67;;;17.30;79.60;;;;;;5069642;28;20454;-66
2023/05/10 06:54:46;;;;;;;5.33;2.90;;;17.30;79.50;;;;;;5065944;28;20462;-66
2023/05/10 06:57:26;;;;;;;6.00;2.83;;;17.40;79.40;;;;;;5066627;28;20457;-66
2023/05/10 07:00:04;;;;;;;7.13;2.77;;;17.40;79.30;;;;;;5067411;28;20470;-66
2023/05/10 07:02:39;;;;;;;5.23;3.00;;;17.40;79.20;;;;;;5066887;28;20574;-66
2023/05/10 07:05:16;;;;;;;6.90;2.90;;;17.40;79.10;;;;;;5071100;28;20495;-66
2023/05/10 07:07:49;;;;;;;7.70;2.93;;;17.40;79.00;;;;;;5069722;28;20456;-66
2023/05/10 07:10:27;;;;;;;8.23;2.60;;;17.40;79.00;;;;;;5068393;28;20453;-66
2023/05/10 07:12:58;;;;;;;5.13;2.63;;;17.40;78.80;;;;;;5066580;28;20459;-66
2023/05/10 07:15:38;;;;;;;4.80;2.40;;;17.40;78.80;;;;;;5068009;28;21315;-66
2023/05/10 07:18:15;;;;;;;7.10;3.40;;;17.50;78.80;;;;;;5071376;28;20526;-66
2023/05/10 07:20:49;;;;;;;6.97;3.00;;;17.50;78.80;;;;;;5065734;28;20457;-66
2023/05/10 07:23:20;;;;;;;4.67;2.30;;;17.60;78.80;;;;;;5066933;28;21170;-66
2023/05/10 07:25:54;;;;;;;5.20;2.73;;;17.60;78.80;;;;;;5064710;28;20538;-66
2023/05/10 07:28:28;;;;;;;11.20;3.50;;;17.70;78.60;;;;;;5068134;28;20969;-66
2023/05/10 07:31:02;;;;;;;6.20;2.80;;;17.70;78.50;;;;;;5067490;28;20477;-66
2023/05/10 07:33:50;;;;;;;6.43;2.70;;;17.70;78.40;;;;;;5066345;28;20467;-66
2023/05/10 07:36:23;;;;;;;6.20;2.43;;;17.80;78.30;;;;;;5069623;28;20453;-66
2023/05/10 07:38:57;;;;;;;5.10;2.53;;;17.80;78.20;;;;;;5068249;28;20477;-66
2023/05/10 07:41:39;;;;;;;6.73;2.83;;;17.80;78.10;;;;;;5064383;28;20478;-67
2023/05/10 07:44:13;;;;;;;6.87;3.10;;;17.90;78.00;;;;;;5067307;28;20449;-66
2023/05/10 07:46:56;;;;;;;5.50;2.40;;;17.90;77.70;;;;;;5069143;28;20457;-66
2023/05/10 07:49:43;;;;;;;7.00;2.33;;;17.90;77.60;;;;;;5068464;28;20486;-66
2023/05/10 07:52:18;;;;;;;6.20;2.90;;;18.00;77.70;;;;;;5066475;28;20458;-66
2023/05/10 07:54:54;;;;;;;10.00;2.50;;;18.00;77.70;;;;;;5064720;28;20492;-66
2023/05/10 07:57:27;;;;;;;6.67;2.80;;;18.10;77.70;;;;;;5064733;28;20945;-66
2023/05/10 07:59:58;;;;;;;7.50;2.37;;;18.20;77.60;;;;;;5068060;28;20490;-66
2023/05/10 08:02:29;;;;;;;4.87;2.37;;;18.30;77.50;;;;;;5064423;28;20474;-66
2023/05/10 08:05:03;;;;;;;5.13;2.30;;;18.30;77.30;;;;;;5066556;28;20492;-66
2023/05/10 08:07:40;;;;;;;5.30;2.17;;;18.30;77.20;;;;;;5065369;28;20460;-66
2023/05/10 08:10:13;;;;;;;8.10;2.70;;;18.40;77.10;;;;;;5065550;28;20457;-66
2023/05/10 08:12:51;;;;;;;6.23;2.57;;;18.40;76.90;;;;;;5066896;28;20485;-66
2023/05/10 08:15:25;;;;;;;5.30;2.50;;;18.30;76.70;;;;;;5066584;28;20492;-66
2023/05/10 08:18:05;;;;;;;6.77;2.67;;;18.20;76.70;;;;;;5062615;28;20549;-66
2023/05/10 08:20:40;;;;;;;5.13;2.20;;;18.20;76.60;;;;;;5066379;28;20453;-66
2023/05/10 08:23:08;;;;;;;8.00;2.20;;;18.20;76.60;;;;;;5066131;28;20942;-66
2023/05/10 08:28:24;;;;;;;5.63;2.30;;;18.20;76.30;;;;;;5069628;28;20535;-66
2023/05/10 08:30:56;;;;;;;7.57;2.60;;;18.20;76.20;;;;;;5070378;28;20472;-66
2023/05/10 08:33:30;;;;;;;7.27;2.90;;;18.20;76.10;;;;;;5068924;28;20439;-66
2023/05/10 08:36:10;;;;;;;8.40;2.83;;;18.20;76.00;;;;;;5071068;28;20464;-66
2023/05/10 08:38:41;;;;;;;5.50;2.70;;;18.20;75.70;;;;;;5068225;28;20445;-66
2023/05/10 08:41:23;;;;;;;10.10;2.87;;;18.10;75.80;;;;;;5069556;28;20476;-66
2023/05/10 08:44:01;;;;;;;5.20;2.53;;;18.10;75.70;;;;;;5061106;28;20459;-66
2023/05/10 08:46:34;;;;;;;13.13;3.50;;;18.10;75.70;;;;;;5072495;28;20457;-66
2023/05/10 08:49:09;;;;;;;5.00;2.57;;;18.10;75.70;;;;;;5071110;28;20561;-66
2023/05/10 08:52:01;;;;;;;6.00;3.13;;;18.10;75.80;;;;;;5068163;28;21386;-66
2023/05/10 08:54:36;;;;;;;5.80;2.37;;;18.20;75.80;;;;;;5068678;28;20473;-66
2023/05/10 08:57:14;;;;;;;7.07;3.07;;;18.20;75.80;;;;;;5068133;28;20576;-66
2023/05/10 08:59:57;;;;;;;6.10;3.10;;;18.20;75.80;;;;;;5069162;28;20891;-66
2023/05/10 09:02:38;;;;;;;5.83;3.33;;;18.30;75.70;;;;;;5068244;28;20861;-66
2023/05/10 09:05:10;;;;;;;5.77;2.60;;;18.30;75.60;;;;;;5067079;28;20469;-66
2023/05/10 09:07:56;;;;;;;5.40;2.63;;;18.30;75.50;;;;;;5064373;28;21004;-66
2023/05/10 09:10:37;;;;;;;5.03;2.70;;;18.30;75.50;;;;;;5073443;28;20978;-66
2023/05/10 09:13:20;;;;;;;5.53;2.70;;;18.30;75.60;;;;;;5071842;28;20916;-66
2023/05/10 09:15:50;;;;;;;5.07;2.47;;;18.40;75.40;;;;;;5068291;28;21035;-66
2023/05/10 09:18:35;;;;;;;4.87;2.43;;;18.40;75.40;;;;;;5071503;28;20452;-66
2023/05/10 09:21:20;;;;;;;6.77;2.60;;;18.40;75.40;;;;;;5072046;28;20457;-66
2023/05/10 09:23:57;;;;;;;5.50;2.67;;;18.40;75.40;;;;;;5088477;28;20966;-66
2023/05/10 09:26:30;;;;;;;5.67;2.50;;;18.40;75.40;;;;;;5066092;28;20575;-66
2023/05/10 09:29:06;;;;;;;5.63;2.43;;;18.40;75.40;;;;;;5071729;28;20462;-65
2023/05/10 09:31:50;;;;;;;4.53;2.43;;;18.50;75.40;;;;;;5058974;28;20674;-66
2023/05/10 09:34:34;;;;;;;5.33;2.57;;;18.50;75.40;;;;;;5069880;28;20442;-66
2023/05/10 09:37:07;;;;;;;4.80;2.27;;;18.60;75.20;;;;;;5072569;28;20451;-66
2023/05/10 09:39:41;;;;;;;5.43;2.67;;;18.60;75.20;;;;;;5069477;28;20489;-66
2023/05/10 09:42:22;;;;;;;7.03;2.43;;;18.70;75.20;;;;;;5070098;28;20487;-66
2023/05/10 09:44:53;;;;;;;5.40;2.40;;;18.70;75.20;;;;;;5070040;28;20461;-66
2023/05/10 09:47:28;;;;;;;7.10;2.50;;;18.80;74.90;;;;;;5071081;28;20922;-66
2023/05/10 09:50:09;;;;;;;8.00;2.60;;;18.80;74.90;;;;;;5070712;28;20500;-66
2023/05/10 09:52:53;;;;;;;5.37;2.20;;;18.80;74.80;;;;;;5069481;28;20503;-66
2023/05/10 09:55:29;;;;;;;7.43;1.83;;;18.80;74.50;;;;;;5070115;28;20457;-66
2023/05/10 09:58:02;;;;;;;4.50;1.70;;;18.70;74.40;;;;;;5071133;28;20495;-66
2023/05/10 10:00:37;;;;;;;5.23;1.83;;;18.70;74.40;;;;;;5067830;28;20519;-66
2023/05/10 10:03:17;;;;;;;4.80;1.83;;;18.60;74.20;;;;;;5070423;28;20903;-66
2023/05/10 10:05:50;;;;;;;5.30;2.40;;;18.70;74.10;;;;;;5069696;28;20465;-66
2023/05/10 10:08:22;;;;;;;4.70;1.90;;;18.70;74.20;;;;;;5070118;28;20453;-66
2023/05/10 10:10:59;;;;;;;4.20;1.80;;;18.80;74.20;;;;;;5070618;28;20448;-66
2023/05/10 10:13:33;;;;;;;6.27;2.43;;;18.80;74.20;;;;;;5068954;28;20543;-66
2023/05/10 10:16:09;;;;;;;6.33;2.37;;;18.90;74.20;;;;;;5070598;28;20547;-66
2023/05/10 10:18:43;;;;;;;5.30;1.93;;;18.90;74.20;;;;;;5079071;28;20453;-66
2023/05/10 10:21:18;;;;;;;3.80;1.67;;;18.90;74.00;;;;;;5070854;28;20455;-66
2023/05/10 10:23:49;;;;;;;5.33;2.37;;;18.90;74.00;;;;;;5066461;28;20475;-66
2023/05/10 10:26:25;;;;;;;4.30;1.80;;;19.00;73.90;;;;;;5070386;28;20456;-66
2023/05/10 10:29:22;;;;;;;5.43;2.03;;;19.00;73.70;;;;;;5069489;28;20460;-66
2023/05/10 10:32:07;;;;;;;4.17;2.00;;;19.00;73.60;;;;;;5068261;28;20563;-66
2023/05/10 10:34:47;;;;;;;5.70;1.80;;;19.00;73.60;;;;;;5070628;28;20761;-66
2023/05/10 10:37:18;;;;;;;5.00;2.10;;;18.90;73.50;;;;;;5069786;28;20958;-67
2023/05/10 10:40:00;;;;;;;5.83;1.73;;;19.00;73.40;;;;;;5069717;28;20451;-66
2023/05/10 10:42:57;;;;;;;4.30;1.80;;;19.00;73.30;;;;;;5066567;28;20443;-66
2023/05/10 10:45:27;;;;;;;8.73;2.00;;;18.90;73.10;;;;;;5053215;28;20561;-66
2023/05/10 10:48:30;;;;;;;4.00;1.70;;;18.90;73.20;;;;;;5068888;28;20776;-66
2023/05/10 10:51:03;;;;;;;4.57;1.97;;;19.00;73.20;;;;;;5069400;28;20513;-66
2023/05/10 10:53:40;;;;;;;5.50;2.80;;;19.00;73.30;;;;;;5069628;28;20520;-66
2023/05/10 10:56:21;;;;;;;5.33;2.20;;;19.10;73.10;;;;;;5069928;28;21123;-67
2023/05/10 10:59:06;;;;;;;5.07;2.13;;;19.10;73.10;;;;;;5067525;28;20462;-66
2023/05/10 11:01:50;;;;;;;6.90;2.00;;;19.20;73.00;;;;;;5064923;28;20484;-66
2023/05/10 11:04:25;;;;;;;4.90;1.80;;;19.20;73.00;;;;;;5066701;28;20480;-66
2023/05/10 11:07:22;;;;;;;4.20;1.80;;;19.20;73.00;;;;;;5068484;28;20818;-66
2023/05/10 11:09:58;;;;;;;5.00;2.00;;;19.30;72.80;;;;;;5069492;28;20992;-66
2023/05/10 11:12:32;;;;;;;4.50;1.60;;;19.40;72.80;;;;;;5067745;28;21042;-66
2023/05/10 11:15:11;;;;;;;5.10;2.10;;;19.40;72.60;;;;;;5067428;28;20453;-66
2023/05/10 11:17:43;;;;;;;5.27;2.23;;;19.40;72.60;;;;;;5064151;28;20846;-65
2023/05/10 11:20:28;;;;;;;5.83;2.10;;;19.40;72.60;;;;;;5071075;28;20460;-66
2023/05/10 11:23:15;;;;;;;5.30;1.50;;;19.50;72.60;;;;;;5068970;28;20543;-66
2023/05/10 11:25:49;;;;;;;4.60;1.63;;;19.60;72.40;;;;;;5069669;28;20493;-66
2023/05/10 11:28:24;;;;;;;4.80;1.37;;;19.60;72.20;;;;;;5066088;28;20461;-66
2023/05/10 11:31:15;;;;;;;4.50;1.60;;;19.60;72.20;;;;;;5062018;28;20477;-66
2023/05/10 11:33:48;;;;;;;4.13;1.80;;;19.70;72.00;;;;;;5064693;28;20510;-66
2023/05/10 11:36:22;;;;;;;6.23;1.53;;;19.70;72.00;;;;;;5067249;28;20959;-66
2023/05/10 11:38:58;;;;;;;6.30;1.90;;;19.70;72.00;;;;;;5068573;28;20478;-66
2023/05/10 11:41:32;;;;;;;4.80;2.10;;;19.70;71.90;;;;;;5068532;28;20471;-66
2023/05/10 11:44:09;;;;;;;4.50;1.47;;;19.70;71.60;;;;;;5067365;28;20501;-66
2023/05/10 11:50:34;;;;;;;3.90;1.30;;;19.70;71.60;;;;;;5065700;28;21017;-66
2023/05/10 11:53:30;;;;;;;5.43;1.60;;;19.70;71.20;;;;;;5065048;28;20475;-66
2023/05/10 11:56:28;;;;;;;5.27;1.50;;;19.70;70.90;;;;;;5068061;28;20967;-66
2023/05/10 12:02:10;;;;;;;7.10;1.33;;;19.60;70.70;;;;;;5073634;28;20554;-66
2023/05/10 12:04:44;;;;;;;4.73;2.00;;;19.50;70.80;;;;;;5067156;28;20484;-66
2023/05/10 12:07:24;;;;;;;4.10;1.80;;;19.50;70.80;;;;;;5068130;28;20456;-66
2023/05/10 12:10:08;;;;;;;4.40;1.93;;;19.50;70.60;;;;;;5072698;28;20478;-66
2023/05/10 12:12:47;;;;;;;4.20;1.60;;;19.30;70.50;;;;;;5072839;28;20460;-66
2023/05/10 12:15:23;;;;;;;4.47;1.87;;;19.20;70.40;;;;;;5071465;28;20450;-66
2023/05/10 12:17:57;;;;;;;5.17;1.87;;;19.00;70.40;;;;;;5069578;28;20469;-66
2023/05/10 12:20:29;;;;;;;5.60;1.60;;;18.90;70.70;;;;;;5068465;28;20459;-66
2023/05/10 12:23:02;;;;;;;4.70;2.30;;;18.80;70.90;;;;;;5075028;28;20860;-66
2023/05/10 12:25:39;;;;;;;8.57;2.30;;;18.70;71.00;;;;;;5070696;28;20472;-66
2023/05/10 12:28:19;;;;;;;5.67;2.50;;;18.70;71.20;;;;;;5071149;28;20481;-66
2023/05/10 12:30:54;;;;;;;4.97;2.67;;;18.60;71.50;;;;;;5069690;28;20471;-65
2023/05/10 12:33:39;;;;;;;9.93;2.43;;;18.50;71.80;;;;;;5070851;28;20459;-66
2023/05/10 12:36:15;;;;;;;5.70;1.80;;;18.40;72.10;;;;;;5071455;28;20507;-66
2023/05/10 12:38:49;;;;;;;5.40;2.13;;;18.40;72.30;;;;;;5071461;28;22196;-65
2023/05/10 12:41:22;;;;;;;5.90;1.93;;;18.30;72.70;;;;;;5072321;28;20537;-66
2023/05/10 12:43:56;;;;;;;6.40;2.10;;;18.20;73.00;;;;;;5074371;28;20452;-66
2023/05/10 12:46:30;;;;;;;10.73;2.03;;;18.20;73.20;;;;;;5070877;28;20468;-66
2023/05/10 12:49:06;;;;;;;7.17;1.90;;;18.10;73.50;;;;;;5071188;28;20456;-66
2023/05/10 12:51:43;;;;;;;5.37;2.40;;;18.10;73.60;;;;;;5065521;28;21075;-67
2023/05/10 12:54:23;;;;;;;4.63;1.93;;;18.20;73.80;;;;;;5068293;28;20996;-67
2023/05/10 12:56:56;;;;;;;5.70;1.73;;;18.20;74.00;;;;;;5067168;28;20861;-67
2023/05/10 12:59:30;;;;;;;4.80;2.00;;;18.30;74.10;;;;;;5070887;28;20457;-68
2023/05/10 13:02:09;;;;;;;14.53;2.43;;;18.40;74.00;;;;;;5070156;28;20541;-67
2023/05/10 13:04:44;;;;;;;9.47;1.83;;;18.40;74.00;;;;;;5067034;28;20501;-67
2023/05/10 13:07:17;;;;;;;7.13;2.40;;;18.40;74.00;;;;;;5070322;28;20469;-68
2023/05/10 13:09:57;;;;;;;3.83;1.67;;;18.40;74.00;;;;;;5070441;28;20476;-67
2023/05/10 13:12:39;;;;;;;4.50;1.80;;;18.40;74.00;;;;;;5073038;28;20450;-67
2023/05/10 13:15:14;;;;;;;7.97;2.27;;;18.40;74.10;;;;;;5071445;28;20461;-67
2023/05/10 13:17:48;;;;;;;6.77;2.13;;;18.40;74.20;;;;;;5069603;28;20519;-67
2023/05/10 13:20:22;;;;;;;5.00;2.03;;;18.40;74.30;;;;;;5073130;28;20450;-67
2023/05/10 13:22:55;;;;;;;4.20;1.97;;;18.50;74.30;;;;;;5072760;28;20517;-67
2023/05/10 13:25:26;;;;;;;8.13;2.20;;;18.50;74.30;;;;;;5071962;28;20481;-66
2023/05/10 13:27:57;;;;;;;4.73;1.80;;;18.50;74.20;;;;;;5073211;28;20523;-67
2023/05/10 13:30:28;;;;;;;4.10;2.00;;;18.50;74.10;;;;;;5071627;28;20461;-68
2023/05/10 13:33:07;;;;;;;8.63;2.07;;;18.50;74.20;;;;;;5070356;28;20509;-67
2023/05/10 13:35:45;;;;;;;5.97;1.73;;;18.50;74.20;;;;;;5071254;28;20537;-67
2023/05/10 13:38:17;;;;;;;4.77;1.70;;;18.50;74.30;;;;;;5066934;28;20812;-67
2023/05/10 13:40:58;;;;;;;5.97;2.37;;;18.50;74.20;;;;;;5072982;28;20504;-68
2023/05/10 13:43:39;;;;;;;5.60;2.13;;;18.50;74.30;;;;;;5070035;28;20961;-67
2023/05/10 13:46:12;;;;;;;5.20;1.97;;;18.60;74.20;;;;;;5069547;28;21120;-68
2023/05/10 13:48:47;;;;;;;4.30;1.70;;;18.60;74.20;;;;;;5071785;28;20968;-67
2023/05/10 13:51:22;;;;;;;4.90;1.93;;;18.60;74.30;;;;;;5071966;28;20477;-68
2023/05/10 13:54:03;;;;;;;5.50;2.17;;;18.60;74.30;;;;;;5069823;28;20795;-68